createdAt,value
2022-08-08T00:01:52.402Z,100669.44
2022-08-08T00:04:30.103Z,100672.47
2022-08-08T00:07:28.578Z,100675.59
2022-08-08T00:10:01.113Z,100671.22
2022-08-08T00:12:33.481Z,100669.97
2022-08-08T00:15:17.704Z,100663.44
2022-08-08T00:18:03.703Z,100671.66
2022-08-08T00:20:51.730Z,100666.75
2022-08-08T00:23:42.874Z,100674.03
2022-08-08T00:26:14.757Z,100664.47
2022-08-08T00:28:53.042Z,100663.00
2022-08-08T00:32:15.238Z,100674.91
2022-08-08T00:35:08.898Z,100673.34
2022-08-08T00:38:30.967Z,100667.38
2022-08-08T00:41:10.148Z,100674.31
2022-08-08T00:44:18.026Z,100675.59
2022-08-08T00:46:58.805Z,100671.63
2022-08-08T00:49:37.183Z,100665.44
2022-08-08T00:52:19.614Z,100671.97
2022-08-08T00:55:06.993Z,100663.66
2022-08-08T00:58:12.650Z,100667.38
2022-08-08T01:01:10.005Z,100667.38
2022-08-08T01:04:04.770Z,100662.16
2022-08-08T01:06:47.585Z,100663.53
2022-08-08T01:09:41.302Z,100666.19
2022-08-08T01:12:07.968Z,100667.78
2022-08-08T01:15:17.250Z,100668.44
2022-08-08T01:18:16.085Z,100670.13
2022-08-08T01:21:07.406Z,100667.34
2022-08-08T01:24:16.695Z,100663.84
2022-08-08T01:27:07.084Z,100662.66
2022-08-08T01:29:59.144Z,100663.72
2022-08-08T01:32:59.492Z,100662.88
2022-08-08T01:35:38.461Z,100657.66
2022-08-08T01:38:44.543Z,100659.47
2022-08-08T01:41:34.200Z,100670.88
2022-08-08T01:44:31.067Z,100670.13
2022-08-08T01:48:14.277Z,100669.59
2022-08-08T01:50:48.989Z,100666.19
2022-08-08T01:54:33.372Z,100672.72
2022-08-08T01:56:46.801Z,100678.25
2022-08-08T02:00:01.892Z,100678.72
2022-08-08T02:02:34.127Z,100683.19
2022-08-08T02:05:56.320Z,100684.69
2022-08-08T02:08:47.306Z,100684.94
2022-08-08T02:11:23.551Z,100684.94
2022-08-08T02:14:21.012Z,100689.00
2022-08-08T02:17:10.583Z,100685.81
2022-08-08T02:20:08.211Z,100680.00
2022-08-08T02:22:58.272Z,100684.91
2022-08-08T02:25:32.912Z,100680.53
2022-08-08T02:28:26.097Z,100680.13
2022-08-08T02:31:59.505Z,100684.19
2022-08-08T02:35:08.164Z,100681.63
2022-08-08T02:38:09.338Z,100681.22
2022-08-08T02:40:56.119Z,100685.69
2022-08-08T02:44:37.667Z,100681.44
2022-08-08T02:46:59.210Z,100674.81
2022-08-08T02:49:48.343Z,100675.78
2022-08-08T02:52:50.912Z,100670.56
2022-08-08T02:55:23.449Z,100675.66
2022-08-08T02:58:30.824Z,100679.28
2022-08-08T03:01:39.873Z,100670.03
2022-08-08T03:05:03.590Z,100673.31
2022-08-08T03:07:57.669Z,100671.81
2022-08-08T03:11:05.061Z,100668.28
2022-08-08T03:16:02.468Z,100670.53
2022-08-08T03:16:48.329Z,100674.13
2022-08-08T03:19:50.511Z,100677.53
2022-08-08T03:22:38.607Z,100682.41
2022-08-08T03:25:14.448Z,100688.59
2022-08-08T03:27:49.526Z,100684.13
2022-08-08T03:30:23.705Z,100684.13
2022-08-08T03:33:56.875Z,100686.03
2022-08-08T03:35:57.010Z,100682.41
2022-08-08T03:38:55.896Z,100686.03
2022-08-08T03:42:12.229Z,100690.41
2022-08-08T03:43:59.645Z,100687.88
2022-08-08T03:46:32.425Z,100687.88
2022-08-08T03:49:15.294Z,100684.34
2022-08-08T03:51:55.446Z,100687.13
2022-08-08T03:54:41.188Z,100685.41
2022-08-08T03:58:34.565Z,100687.31
2022-08-08T04:00:11.697Z,100689.06
2022-08-08T04:02:47.262Z,100700.53
2022-08-08T04:05:19.545Z,100697.88
2022-08-08T04:07:54.279Z,100696.06
2022-08-08T04:10:20.865Z,100703.09
2022-08-08T04:12:49.808Z,100698.63
2022-08-08T04:15:16.639Z,100710.00
2022-08-08T04:17:58.451Z,100705.53
2022-08-08T04:20:28.682Z,100705.44
2022-08-08T04:22:57.130Z,100711.59
2022-08-08T04:25:29.871Z,100710.75
2022-08-08T04:28:35.523Z,100713.28
2022-08-08T04:30:45.541Z,100707.03
2022-08-08T04:33:15.614Z,100714.16
2022-08-08T04:35:43.895Z,100706.16
2022-08-08T04:38:21.353Z,100703.59
2022-08-08T04:40:51.780Z,100711.47
2022-08-08T04:43:22.112Z,100712.34
2022-08-08T04:45:50.174Z,100709.69
2022-08-08T04:48:17.476Z,100713.19
2022-08-08T04:50:48.900Z,100715.84
2022-08-08T04:53:51.992Z,100717.78
2022-08-08T04:56:04.130Z,100717.78
2022-08-08T04:58:31.153Z,100723.94
2022-08-08T05:00:59.869Z,100718.50
2022-08-08T05:04:11.202Z,100726.50
2022-08-08T05:06:25.556Z,100722.91
2022-08-08T05:08:55.881Z,100725.56
2022-08-08T05:11:26.255Z,100731.00
2022-08-08T05:13:57.516Z,100734.47
2022-08-08T05:16:52.825Z,100735.44
2022-08-08T05:20:12.227Z,100730.88
2022-08-08T05:22:06.955Z,100729.16
2022-08-08T05:24:34.185Z,100729.16
2022-08-08T05:27:04.354Z,100730.03
2022-08-08T05:29:30.861Z,100722.91
2022-08-08T05:32:03.506Z,100728.94
2022-08-08T05:34:47.699Z,100734.38
2022-08-08T05:37:39.084Z,100745.69
2022-08-08T05:40:11.242Z,100741.59
2022-08-08T05:42:44.496Z,100745.84
2022-08-08T05:45:25.465Z,100741.16
2022-08-08T05:48:00.770Z,100739.97
2022-08-08T05:50:30.150Z,100732.63
2022-08-08T05:53:54.577Z,100741.13
2022-08-08T05:56:10.179Z,100748.78
2022-08-08T05:58:57.842Z,100746.66
2022-08-08T06:01:56.400Z,100748.66
2022-08-08T06:04:23.397Z,100756.19
2022-08-08T06:07:00.278Z,100755.84
2022-08-08T06:09:58.230Z,100754.44
2022-08-08T06:12:30.149Z,100757.25
2022-08-08T06:15:03.078Z,100755.84
2022-08-08T06:17:51.167Z,100756.13
2022-08-08T06:20:20.772Z,100757.25
2022-08-08T06:22:49.444Z,100761.13
2022-08-08T06:25:18.152Z,100770.38
2022-08-08T06:27:50.473Z,100769.91
2022-08-08T06:30:20.403Z,100766.66
2022-08-08T06:32:58.181Z,100772.31
2022-08-08T06:36:07.431Z,100768.28
2022-08-08T06:38:21.631Z,100773.06
2022-08-08T06:41:03.092Z,100768.91
2022-08-08T06:43:34.796Z,100773.78
2022-08-08T06:46:04.600Z,100786.66
2022-08-08T06:48:36.313Z,100775.50
2022-08-08T06:51:07.722Z,100776.81
2022-08-08T06:53:39.242Z,100784.47
2022-08-08T06:56:07.175Z,100783.97
2022-08-08T06:58:34.126Z,100783.63
2022-08-08T07:01:11.690Z,100783.28
2022-08-08T07:04:39.557Z,100785.69
2022-08-08T07:07:12.091Z,100783.47
2022-08-08T07:09:59.224Z,100790.03
2022-08-08T07:12:47.566Z,100790.63
2022-08-08T07:15:32.451Z,100794.44
2022-08-08T07:18:37.147Z,100796.75
2022-08-08T07:21:02.190Z,100800.72
2022-08-08T07:24:05.241Z,100804.16
2022-08-08T07:26:35.570Z,100807.06
2022-08-08T07:29:05.623Z,100805.81
2022-08-08T07:31:35.876Z,100804.59
2022-08-08T07:34:08.828Z,100800.69
2022-08-08T07:36:37.201Z,100801.41
2022-08-08T07:39:10.760Z,100803.94
2022-08-08T07:41:58.636Z,100806.47
2022-08-08T07:44:37.421Z,100807.91
2022-08-08T07:47:07.302Z,100803.06
2022-08-08T07:49:34.027Z,100809.81
2022-08-08T07:52:02.715Z,100810.31
2022-08-08T07:54:42.085Z,100816.25
2022-08-08T07:57:28.435Z,100816.69
2022-08-08T08:00:16.242Z,100817.53
2022-08-08T08:02:47.983Z,100814.34
2022-08-08T08:05:26.427Z,100810.31
2022-08-08T08:08:07.118Z,100814.25
2022-08-08T08:10:35.942Z,100818.00
2022-08-08T08:13:25.128Z,100812.09
2022-08-08T08:16:06.049Z,100818.66
2022-08-08T08:18:51.678Z,100824.94
2022-08-08T08:21:35.536Z,100823.00
2022-08-08T08:24:19.917Z,100830.09
2022-08-08T08:26:54.767Z,100831.03
2022-08-08T08:29:22.161Z,100829.50
2022-08-08T08:31:54.117Z,100827.84
2022-08-08T08:34:24.931Z,100824.34
2022-08-08T08:36:59.611Z,100828.75
2022-08-08T08:40:00.547Z,100819.03
2022-08-08T08:42:14.818Z,100825.25
2022-08-08T08:44:57.330Z,100832.34
2022-08-08T08:47:26.253Z,100829.81
2022-08-08T08:49:52.789Z,100836.09
2022-08-08T08:52:22.231Z,100833.53
2022-08-08T08:54:59.902Z,100838.75
2022-08-08T08:57:29.261Z,100837.50
2022-08-08T09:00:01.698Z,100834.66
2022-08-08T09:02:35.109Z,100839.03
2022-08-08T09:05:06.090Z,100839.72
2022-08-08T09:07:39.691Z,100836.19
2022-08-08T09:10:23.688Z,100836.03
2022-08-08T09:12:56.524Z,100840.38
2022-08-08T09:15:40.879Z,100836.94
2022-08-08T09:18:09.413Z,100831.38
2022-08-08T09:22:02.959Z,100831.47
2022-08-08T09:23:33.313Z,100827.91
2022-08-08T09:26:23.471Z,100840.75
2022-08-08T09:28:57.805Z,100840.28
2022-08-08T09:31:55.914Z,100834.16
2022-08-08T09:34:32.516Z,100839.88
2022-08-08T09:37:57.138Z,100846.31
2022-08-08T09:40:10.503Z,100835.47
2022-08-08T09:42:44.171Z,100836.25
2022-08-08T09:46:02.201Z,100838.19
2022-08-08T09:48:21.858Z,100837.66
2022-08-08T09:50:56.876Z,100833.88
2022-08-08T09:53:56.515Z,100844.41
2022-08-08T09:56:24.895Z,100842.97
2022-08-08T09:58:57.701Z,100830.41
2022-08-08T10:01:59.470Z,100835.84
2022-08-08T10:04:35.641Z,100835.03
2022-08-08T10:07:07.602Z,100832.75
2022-08-08T10:10:00.989Z,100843.88
2022-08-08T10:12:38.012Z,100842.41
2022-08-08T10:15:17.528Z,100842.59
2022-08-08T10:18:06.662Z,100838.59
2022-08-08T10:20:51.289Z,100838.59
2022-08-08T10:23:42.019Z,100838.94
2022-08-08T10:26:30.396Z,100829.91
2022-08-08T10:29:03.199Z,100837.69
2022-08-08T10:31:49.570Z,100831.13
2022-08-08T10:34:21.088Z,100831.69
2022-08-08T10:36:48.940Z,100825.16
2022-08-08T10:39:43.021Z,100828.56
2022-08-08T10:42:19.075Z,100829.56
2022-08-08T10:44:49.479Z,100829.91
2022-08-08T10:47:20.610Z,100822.50
2022-08-08T10:50:02.172Z,100823.88
2022-08-08T10:52:33.729Z,100830.59
2022-08-08T10:55:07.724Z,100816.88
2022-08-08T10:57:50.208Z,100815.66
2022-08-08T11:00:27.293Z,100816.34
2022-08-08T11:02:55.233Z,100817.47
2022-08-08T11:05:22.974Z,100814.38
2022-08-08T11:08:36.927Z,100824.84
2022-08-08T11:10:37.825Z,100824.28
2022-08-08T11:13:29.633Z,100811.94
2022-08-08T11:15:52.318Z,100818.06
2022-08-08T11:18:30.489Z,100813.84
2022-08-08T11:21:00.963Z,100817.88
2022-08-08T11:23:36.744Z,100808.69
2022-08-08T11:26:05.375Z,100816.84
2022-08-08T11:28:38.844Z,100810.97
2022-08-08T11:31:09.537Z,100820.03
2022-08-08T11:33:51.726Z,100816.31
2022-08-08T11:36:28.911Z,100812.31
2022-08-08T11:38:56.396Z,100812.41
2022-08-08T11:41:32.111Z,100804.53
2022-08-08T11:44:01.339Z,100802.44
2022-08-08T11:46:30.607Z,100799.91
2022-08-08T11:49:00.163Z,100802.41
2022-08-08T11:51:39.257Z,100812.34
2022-08-08T11:54:26.892Z,100813.09
2022-08-08T11:56:56.139Z,100793.56
2022-08-08T11:59:57.782Z,100796.97
2022-08-08T12:02:33.000Z,100794.31
2022-08-08T12:05:04.850Z,100791.47
2022-08-08T12:07:53.533Z,100800.91
2022-08-08T12:10:22.103Z,100794.75
2022-08-08T12:12:51.866Z,100799.28
2022-08-08T12:15:28.183Z,100791.75
2022-08-08T12:17:54.911Z,100793.25
2022-08-08T12:20:21.567Z,100785.44
2022-08-08T12:22:53.541Z,100796.53
2022-08-08T12:25:29.731Z,100795.75
2022-08-08T12:28:15.318Z,100795.78
2022-08-08T12:30:48.015Z,100798.06
2022-08-08T12:33:37.593Z,100797.78
2022-08-08T12:36:16.379Z,100792.69
2022-08-08T12:38:51.223Z,100795.66
2022-08-08T12:41:33.933Z,100793.41
2022-08-08T12:44:10.912Z,100800.38
2022-08-08T12:46:37.660Z,100798.50
2022-08-08T12:49:25.124Z,100798.03
2022-08-08T12:51:58.457Z,100791.66
2022-08-08T12:54:36.763Z,100794.03
2022-08-08T12:57:38.354Z,100797.84
2022-08-08T13:00:33.818Z,100803.91
2022-08-08T13:03:05.706Z,100796.66
2022-08-08T13:06:02.215Z,100793.94
2022-08-08T13:08:21.953Z,100792.91
2022-08-08T13:10:56.586Z,100794.41
2022-08-08T13:13:35.172Z,100796.28
2022-08-08T13:16:20.980Z,100795.50
2022-08-08T13:18:58.357Z,100798.13
2022-08-08T13:21:48.851Z,100802.38
2022-08-08T13:24:18.697Z,100799.94
2022-08-08T13:27:05.244Z,100807.34
2022-08-08T13:29:54.454Z,100805.44
2022-08-08T13:32:23.788Z,100801.63
2022-08-08T13:34:55.411Z,100805.25
2022-08-08T13:37:52.251Z,100804.97
2022-08-08T13:40:10.732Z,100808.22
2022-08-08T13:42:37.762Z,100806.94
2022-08-08T13:45:05.875Z,100803.38
2022-08-08T13:47:38.507Z,100804.69
2022-08-08T13:50:35.882Z,100796.81
2022-08-08T13:52:56.427Z,100795.16
2022-08-08T13:55:36.274Z,100795.00
2022-08-08T13:58:08.365Z,100786.44
2022-08-08T14:00:45.483Z,100795.28
2022-08-08T14:03:53.880Z,100784.22
2022-08-08T14:06:20.506Z,100778.16
2022-08-08T14:08:57.904Z,100782.44
2022-08-08T14:11:27.939Z,100777.41
2022-08-08T14:13:59.470Z,100778.06
2022-08-08T14:16:27.839Z,100777.78
2022-08-08T14:19:01.002Z,100775.06
2022-08-08T14:21:51.924Z,100772.97
2022-08-08T14:24:33.673Z,100774.50
2022-08-08T14:27:01.714Z,100777.16
2022-08-08T14:29:30.436Z,100783.59
2022-08-08T14:32:09.037Z,100777.09
2022-08-08T14:34:42.145Z,100770.97
2022-08-08T14:37:13.108Z,100775.59
2022-08-08T14:39:49.802Z,100774.13
2022-08-08T14:42:25.119Z,100767.09
2022-08-08T14:45:01.051Z,100760.88
2022-08-08T14:47:30.328Z,100759.66
2022-08-08T14:50:21.453Z,100759.22
2022-08-08T14:53:09.746Z,100758.59
2022-08-08T14:55:42.334Z,100755.69
2022-08-08T14:58:16.114Z,100750.75
2022-08-08T15:00:44.936Z,100753.13
2022-08-08T15:03:14.532Z,100746.34
2022-08-08T15:05:52.346Z,100753.84
2022-08-08T15:08:35.484Z,100754.16
2022-08-08T15:11:06.741Z,100754.53
2022-08-08T15:13:35.194Z,100750.84
2022-08-08T15:16:12.242Z,100744.56
2022-08-08T15:18:50.081Z,100736.97
2022-08-08T15:21:18.682Z,100748.00
2022-08-08T15:23:51.551Z,100743.31
2022-08-08T15:26:21.515Z,100736.34
2022-08-08T15:28:53.050Z,100739.81
2022-08-08T15:31:55.651Z,100738.56
2022-08-08T15:34:08.423Z,100735.41
2022-08-08T15:36:35.489Z,100746.28
2022-08-08T15:39:04.234Z,100749.16
2022-08-08T15:41:43.601Z,100745.06
2022-08-08T15:44:13.340Z,100739.38
2022-08-08T15:46:45.576Z,100738.28
2022-08-08T15:49:20.655Z,100743.75
2022-08-08T15:51:54.691Z,100754.81
2022-08-08T15:54:38.866Z,100743.91
2022-08-08T15:57:08.929Z,100741.22
2022-08-08T16:00:05.623Z,100747.47
2022-08-08T16:02:31.049Z,100750.66
2022-08-08T16:05:00.571Z,100749.19
2022-08-08T16:07:39.428Z,100742.25
2022-08-08T16:13:04.329Z,100743.50
2022-08-08T16:13:31.932Z,100742.22
2022-08-08T16:15:58.083Z,100733.34
2022-08-08T16:18:35.827Z,100745.50
2022-08-08T16:21:03.044Z,100739.50
2022-08-08T16:23:32.913Z,100742.44
2022-08-08T16:26:12.840Z,100740.16
2022-08-08T16:28:44.300Z,100739.81
2022-08-08T16:31:12.370Z,100738.47
2022-08-08T16:33:40.156Z,100739.63
2022-08-08T16:36:09.852Z,100750.19
2022-08-08T16:38:44.544Z,100736.53
2022-08-08T16:41:18.503Z,100747.81
2022-08-08T16:43:50.862Z,100739.25
2022-08-08T16:46:37.692Z,100751.72
2022-08-08T16:49:08.782Z,100746.44
2022-08-08T16:55:18.393Z,100750.56
2022-08-08T16:55:20.745Z,100749.91
2022-08-08T16:57:22.781Z,100747.78
2022-08-08T16:59:51.904Z,100756.88
2022-08-08T17:02:32.628Z,100751.81
2022-08-08T17:05:08.040Z,100756.66
2022-08-08T17:07:37.862Z,100750.06
2022-08-08T17:10:11.525Z,100759.31
2022-08-08T17:12:39.035Z,100759.22
2022-08-08T17:15:17.805Z,100754.75
2022-08-08T17:18:03.620Z,100757.28
2022-08-08T17:20:40.227Z,100757.69
2022-08-08T17:23:17.546Z,100751.19
2022-08-08T17:25:55.000Z,100756.69
2022-08-08T17:28:34.942Z,100760.19
2022-08-08T17:31:39.585Z,100760.94
2022-08-08T17:34:47.920Z,100753.56
2022-08-08T17:37:01.078Z,100763.78
2022-08-08T17:40:04.101Z,100764.78
2022-08-08T17:42:12.432Z,100759.41
2022-08-08T17:44:39.789Z,100757.56
2022-08-08T17:47:11.015Z,100765.38
2022-08-08T17:49:43.474Z,100768.59
2022-08-08T17:52:10.690Z,100769.13
2022-08-08T17:54:37.517Z,100767.78
2022-08-08T17:57:05.742Z,100773.69
2022-08-08T17:59:36.527Z,100778.75
2022-08-08T18:02:16.343Z,100776.75
2022-08-08T18:04:48.607Z,100776.59
2022-08-08T18:08:03.575Z,100788.91
2022-08-08T18:10:05.235Z,100786.88
2022-08-08T18:12:31.803Z,100780.47
2022-08-08T18:14:58.700Z,100781.97
2022-08-08T18:17:28.428Z,100782.47
2022-08-08T18:20:43.316Z,100787.72
2022-08-08T18:22:59.948Z,100784.19
2022-08-08T18:25:26.497Z,100791.25
2022-08-08T18:28:03.995Z,100798.34
2022-08-08T18:30:30.537Z,100794.59
2022-08-08T18:32:59.776Z,100803.50
2022-08-08T18:35:30.678Z,100800.63
2022-08-08T18:38:16.902Z,100803.31
2022-08-08T18:40:45.843Z,100804.25
2022-08-08T18:43:16.047Z,100809.47
2022-08-08T18:46:00.334Z,100814.00
2022-08-08T18:48:30.876Z,100819.66
2022-08-08T18:50:58.741Z,100827.72
2022-08-08T18:54:02.913Z,100823.25
2022-08-08T18:56:29.281Z,100829.25
2022-08-08T18:58:55.818Z,100836.81
2022-08-08T19:02:25.346Z,100839.59
2022-08-08T19:04:12.607Z,100843.25
2022-08-08T19:06:39.801Z,100839.09
2022-08-08T19:09:13.011Z,100840.03
2022-08-08T19:11:40.311Z,100845.63
2022-08-08T19:14:12.913Z,100850.25
2022-08-08T19:16:41.242Z,100851.19
2022-08-08T19:19:13.865Z,100857.63
2022-08-08T19:21:49.501Z,100854.16
2022-08-08T19:24:18.507Z,100862.28
2022-08-08T19:27:06.630Z,100868.72
2022-08-08T19:29:35.775Z,100866.06
2022-08-08T19:32:09.241Z,100871.34
2022-08-08T19:34:41.501Z,100876.59
2022-08-08T19:37:15.951Z,100878.19
2022-08-08T19:39:43.479Z,100884.31
2022-08-08T19:42:13.524Z,100888.56
2022-08-08T19:44:46.404Z,100880.22
2022-08-08T19:47:24.877Z,100886.06
2022-08-08T19:50:00.545Z,100885.50
2022-08-08T19:52:35.126Z,100892.84
2022-08-08T19:55:12.942Z,100894.41
2022-08-08T19:57:43.208Z,100889.19
2022-08-08T20:00:30.067Z,100891.31
2022-08-08T20:02:59.447Z,100899.66
2022-08-08T20:06:14.323Z,100898.13
2022-08-08T20:08:30.992Z,100895.56
2022-08-08T20:10:59.911Z,100899.22
2022-08-08T20:14:12.410Z,100900.22
2022-08-08T20:16:13.324Z,100903.88
2022-08-08T20:18:52.467Z,100903.31
2022-08-08T20:21:23.230Z,100904.47
2022-08-08T20:23:54.225Z,100904.72
2022-08-08T20:26:29.927Z,100907.00
2022-08-08T20:28:59.103Z,100902.50
2022-08-08T20:31:47.095Z,100906.59
2022-08-08T20:34:28.765Z,100907.44
2022-08-08T20:37:02.491Z,100906.31
2022-08-08T20:39:39.441Z,100904.19
2022-08-08T20:42:28.169Z,100904.72
2022-08-08T20:44:57.257Z,100905.16
2022-08-08T20:47:25.400Z,100905.44
2022-08-08T20:49:57.484Z,100902.19
2022-08-08T20:52:26.498Z,100909.78
2022-08-08T20:54:53.268Z,100907.41
2022-08-08T20:57:21.107Z,100910.63
2022-08-08T20:59:48.081Z,100911.28
2022-08-08T21:02:19.995Z,100912.81
2022-08-08T21:04:53.088Z,100915.19
2022-08-08T21:07:47.647Z,100921.13
2022-08-08T21:10:13.051Z,100924.63
2022-08-08T21:12:41.416Z,100925.13
2022-08-08T21:15:12.006Z,100930.31
2022-08-08T21:17:45.133Z,100927.31
2022-08-08T21:20:22.639Z,100927.88
2022-08-08T21:23:02.314Z,100931.34
2022-08-08T21:25:29.277Z,100932.03
2022-08-08T21:28:09.350Z,100931.63
2022-08-08T21:30:45.366Z,100929.50
2022-08-08T21:33:16.541Z,100930.88
2022-08-08T21:36:16.280Z,100924.19
2022-08-08T21:38:30.005Z,100922.91
2022-08-08T21:40:57.886Z,100926.81
2022-08-08T21:43:33.803Z,100928.06
2022-08-08T21:48:12.845Z,100931.97
2022-08-08T21:48:52.031Z,100934.91
2022-08-08T21:51:46.019Z,100938.81
2022-08-08T21:54:34.361Z,100935.56
2022-08-08T21:56:54.502Z,100941.16
2022-08-08T21:59:21.243Z,100941.41
2022-08-08T22:01:52.295Z,100945.31
2022-08-08T22:04:24.795Z,100944.59
2022-08-08T22:06:52.480Z,100941.19
2022-08-08T22:09:19.421Z,100943.03
2022-08-08T22:11:56.552Z,100948.50
2022-08-08T22:14:29.790Z,100949.38
2022-08-08T22:16:56.514Z,100949.63
2022-08-08T22:19:29.514Z,100948.88
2022-08-08T22:21:56.696Z,100951.81
2022-08-08T22:24:28.126Z,100952.06
2022-08-08T22:27:02.658Z,100954.00
2022-08-08T22:29:59.169Z,100952.31
2022-08-08T22:32:19.084Z,100951.69
2022-08-08T22:34:51.173Z,100948.56
2022-08-08T22:37:27.891Z,100944.53
2022-08-08T22:40:11.918Z,100956.59
2022-08-08T22:42:47.115Z,100957.56
2022-08-08T22:45:15.526Z,100958.78
2022-08-08T22:47:49.082Z,100954.66
2022-08-08T22:50:25.267Z,100959.41
2022-08-08T22:53:22.438Z,100954.44
2022-08-08T22:55:58.517Z,100962.56
2022-08-08T22:58:33.069Z,100951.16
2022-08-08T23:02:01.607Z,100956.63
2022-08-08T23:03:56.325Z,100961.09
2022-08-08T23:06:24.488Z,100962.09
2022-08-08T23:08:56.014Z,100969.25
2022-08-08T23:12:27.769Z,100965.75
2022-08-08T23:14:21.169Z,100967.69
2022-08-08T23:16:58.000Z,100964.16
2022-08-08T23:19:30.620Z,100968.66
2022-08-08T23:21:58.725Z,100964.16
2022-08-08T23:24:25.253Z,100970.63
2022-08-08T23:26:56.080Z,100970.84
2022-08-08T23:29:25.339Z,100978.13
2022-08-08T23:31:52.206Z,100980.09
2022-08-08T23:34:19.891Z,100974.13
2022-08-08T23:36:47.756Z,100981.41
2022-08-08T23:39:15.536Z,100985.19
2022-08-08T23:41:46.878Z,100984.59
2022-08-08T23:44:16.916Z,100980.34
2022-08-08T23:49:01.796Z,100976.03
2022-08-08T23:49:33.909Z,100981.53
2022-08-08T23:52:06.351Z,100973.75
2022-08-08T23:54:41.207Z,100971.19
2022-08-08T23:57:25.367Z,100962.31
